createdAt,value
2019-02-19T00:00:07.462Z,60.89
2019-02-19T00:01:07.467Z,61.30
2019-02-19T00:02:07.633Z,60.91
2019-02-19T00:03:07.812Z,61.09
2019-02-19T00:04:07.401Z,61.12
2019-02-19T00:05:07.402Z,61.12
2019-02-19T00:06:07.418Z,61.22
2019-02-19T00:07:07.368Z,61.63
2019-02-19T00:08:07.355Z,61.91
2019-02-19T00:09:07.375Z,61.22
2019-02-19T00:10:07.348Z,61.02
2019-02-19T00:11:07.341Z,61.63
2019-02-19T00:12:07.323Z,61.33
2019-02-19T00:13:07.305Z,61.94
2019-02-19T00:14:07.285Z,61.74
2019-02-19T00:15:08.595Z,61.63
2019-02-19T00:16:07.267Z,61.53
2019-02-19T00:17:07.254Z,61.53
2019-02-19T00:18:07.261Z,61.74
2019-02-19T00:19:07.233Z,61.43
2019-02-19T00:20:07.240Z,61.94
2019-02-19T00:21:07.213Z,61.53
2019-02-19T00:22:07.204Z,61.74
2019-02-19T00:23:07.210Z,61.43
2019-02-19T00:24:07.177Z,61.77
2019-02-19T00:25:07.159Z,61.87
2019-02-19T00:26:07.188Z,62.07
2019-02-19T00:27:07.148Z,62.18
2019-02-19T00:28:07.167Z,61.43
2019-02-19T00:29:07.125Z,61.87
2019-02-19T00:30:07.110Z,62.66
2019-02-19T00:31:07.103Z,62.38
2019-02-19T00:32:07.107Z,62.28
2019-02-19T00:33:07.078Z,62.59
2019-02-19T00:34:07.103Z,62.70
2019-02-19T00:35:07.075Z,62.70
2019-02-19T00:36:07.044Z,61.87
2019-02-19T00:37:07.055Z,62.49
2019-02-19T00:38:07.030Z,62.70
2019-02-19T00:39:07.023Z,62.90
2019-02-19T00:40:07.029Z,62.49
2019-02-19T00:41:07.015Z,62.59
2019-02-19T00:42:07.007Z,63.10
2019-02-19T00:43:07.001Z,62.90
2019-02-19T00:44:06.959Z,63.00
2019-02-19T00:45:06.953Z,63.62
2019-02-19T00:46:06.958Z,63.10
2019-02-19T00:47:06.917Z,63.34
2019-02-19T00:48:06.912Z,63.34
2019-02-19T00:49:06.917Z,63.34
2019-02-19T00:50:06.913Z,63.82
2019-02-19T00:51:06.894Z,63.42
2019-02-19T00:52:06.869Z,63.82
2019-02-19T00:53:06.856Z,63.52
2019-02-19T00:54:07.295Z,63.85
2019-02-19T00:55:06.845Z,63.54
2019-02-19T00:56:06.838Z,63.65
2019-02-19T00:57:06.827Z,63.65
2019-02-19T00:58:06.792Z,63.45
2019-02-19T00:59:06.831Z,63.75
2019-02-19T01:00:06.803Z,63.75
2019-02-19T01:01:06.769Z,63.45
2019-02-19T01:02:06.787Z,63.45
2019-02-19T01:03:06.738Z,64.17
2019-02-19T01:04:06.747Z,64.06
2019-02-19T01:05:06.733Z,64.17
2019-02-19T01:06:06.727Z,63.96
2019-02-19T01:07:06.717Z,64.17
2019-02-19T01:08:06.734Z,64.19
2019-02-19T01:09:06.672Z,63.85
2019-02-19T01:10:06.681Z,63.96
2019-02-19T01:11:06.697Z,63.85
2019-02-19T01:12:06.644Z,64.27
2019-02-19T01:13:06.642Z,64.19
2019-02-19T01:14:06.623Z,64.37
2019-02-19T01:15:06.625Z,64.68
2019-02-19T01:16:06.613Z,64.78
2019-02-19T01:17:06.614Z,65.12
2019-02-19T01:18:06.586Z,65.02
2019-02-19T01:19:06.572Z,65.22
2019-02-19T01:20:06.554Z,65.12
2019-02-19T01:21:06.542Z,64.81
2019-02-19T01:22:06.538Z,65.12
2019-02-19T01:23:06.554Z,65.12
2019-02-19T01:24:06.521Z,65.12
2019-02-19T01:25:06.512Z,65.12
2019-02-19T01:26:06.490Z,65.53
2019-02-19T01:27:06.476Z,65.53
2019-02-19T01:28:06.486Z,65.95
2019-02-19T01:29:06.469Z,65.74
2019-02-19T01:30:06.451Z,65.64
2019-02-19T01:31:06.427Z,65.53
2019-02-19T01:32:06.422Z,66.28
2019-02-19T01:33:06.440Z,65.95
2019-02-19T01:34:06.415Z,65.22
2019-02-19T01:35:06.401Z,65.88
2019-02-19T01:36:06.383Z,65.74
2019-02-19T01:37:06.360Z,65.77
2019-02-19T01:38:06.375Z,65.64
2019-02-19T01:39:06.369Z,66.28
2019-02-19T01:40:06.362Z,66.60
2019-02-19T01:41:06.327Z,66.70
2019-02-19T01:42:06.316Z,66.80
2019-02-19T01:43:06.307Z,66.80
2019-02-19T01:44:06.310Z,66.80
2019-02-19T01:45:06.310Z,66.80
2019-02-19T01:46:06.279Z,67.21
2019-02-19T01:47:06.287Z,67.24
2019-02-19T01:48:06.261Z,67.21
2019-02-19T01:49:06.284Z,66.80
2019-02-19T01:50:06.244Z,67.00
2019-02-19T01:51:06.242Z,67.86
2019-02-19T01:52:06.213Z,67.66
2019-02-19T01:53:06.207Z,67.45
2019-02-19T01:54:06.205Z,67.35
2019-02-19T01:55:06.190Z,67.35
2019-02-19T01:56:06.167Z,67.24
2019-02-19T01:57:06.169Z,67.86
2019-02-19T01:58:06.138Z,67.66
2019-02-19T01:59:06.140Z,67.97
2019-02-19T02:00:06.153Z,67.97
2019-02-19T02:01:06.152Z,67.97
2019-02-19T02:02:06.104Z,67.97
2019-02-19T02:03:06.082Z,68.48
2019-02-19T02:04:06.108Z,68.38
2019-02-19T02:05:06.088Z,68.38
2019-02-19T02:06:06.058Z,68.82
2019-02-19T02:07:06.040Z,68.82
2019-02-19T02:08:06.036Z,68.69
2019-02-19T02:09:06.028Z,68.62
2019-02-19T02:10:06.016Z,69.24
2019-02-19T02:11:06.025Z,69.13
2019-02-19T02:12:05.988Z,69.13
2019-02-19T02:13:06.042Z,68.82
2019-02-19T02:14:06.003Z,69.54
2019-02-19T02:15:05.953Z,69.54
2019-02-19T02:16:05.965Z,69.34
2019-02-19T02:17:05.976Z,69.75
2019-02-19T02:18:05.933Z,69.34
2019-02-19T02:19:05.911Z,69.34
2019-02-19T02:20:05.905Z,69.13
2019-02-19T02:21:05.894Z,69.44
2019-02-19T02:22:05.908Z,69.54
2019-02-19T02:23:05.864Z,69.85
2019-02-19T02:24:05.877Z,70.78
2019-02-19T02:25:05.852Z,70.17
2019-02-19T02:26:05.865Z,69.75
2019-02-19T02:27:05.840Z,69.96
2019-02-19T02:28:05.940Z,69.96
2019-02-19T02:29:05.799Z,69.89
2019-02-19T02:30:05.806Z,69.99
2019-02-19T02:31:05.793Z,70.82
2019-02-19T02:32:05.818Z,70.51
2019-02-19T02:33:05.771Z,70.82
2019-02-19T02:34:05.780Z,71.02
2019-02-19T02:35:05.751Z,71.02
2019-02-19T02:36:05.767Z,71.23
2019-02-19T02:37:05.732Z,71.33
2019-02-19T02:38:05.719Z,71.12
2019-02-19T02:39:05.723Z,71.12
2019-02-19T02:40:05.681Z,70.92
2019-02-19T02:41:05.687Z,71.12
2019-02-19T02:42:05.688Z,71.12
2019-02-19T02:43:05.653Z,71.02
2019-02-19T02:44:05.691Z,71.23
2019-02-19T02:45:05.682Z,71.12
2019-02-19T02:46:05.637Z,71.33
2019-02-19T02:47:05.630Z,71.02
2019-02-19T02:48:05.611Z,71.64
2019-02-19T02:49:05.592Z,71.23
2019-02-19T02:50:05.599Z,71.02
2019-02-19T02:51:05.592Z,71.12
2019-02-19T02:52:05.557Z,71.33
2019-02-19T02:53:05.551Z,70.92
2019-02-19T02:54:05.530Z,70.92
2019-02-19T02:55:05.564Z,71.02
2019-02-19T02:56:05.534Z,70.82
2019-02-19T02:57:05.515Z,71.02
2019-02-19T02:58:05.487Z,70.92
2019-02-19T02:59:05.490Z,70.92
2019-02-19T03:00:05.483Z,70.82
2019-02-19T03:01:05.481Z,70.51
2019-02-19T03:02:05.467Z,70.40
2019-02-19T03:03:05.462Z,70.61
2019-02-19T03:04:05.431Z,70.92
2019-02-19T03:05:05.426Z,70.72
2019-02-19T03:06:05.442Z,70.92
2019-02-19T03:07:05.400Z,71.02
2019-02-19T03:08:05.412Z,70.82
2019-02-19T03:09:05.405Z,71.02
2019-02-19T03:10:05.378Z,70.92
2019-02-19T03:11:05.391Z,70.82
2019-02-19T03:12:05.374Z,71.23
2019-02-19T03:13:05.333Z,71.02
2019-02-19T03:14:05.335Z,71.23
2019-02-19T03:15:05.344Z,70.92
2019-02-19T03:16:05.309Z,71.33
2019-02-19T03:17:05.297Z,71.02
2019-02-19T03:18:05.286Z,71.12
2019-02-19T03:19:05.271Z,71.75
2019-02-19T03:20:05.285Z,70.61
2019-02-19T03:21:05.305Z,71.02
2019-02-19T03:22:05.236Z,71.23
2019-02-19T03:23:05.263Z,71.23
2019-02-19T03:24:05.209Z,71.54
2019-02-19T03:25:05.225Z,71.64
2019-02-19T03:26:05.299Z,72.06
2019-02-19T03:27:05.175Z,71.88
2019-02-19T03:28:05.182Z,71.98
2019-02-19T03:29:05.171Z,72.09
2019-02-19T03:30:05.165Z,72.40
2019-02-19T03:31:05.206Z,72.67
2019-02-19T03:32:05.150Z,72.67
2019-02-19T03:33:05.121Z,72.61
2019-02-19T03:34:05.110Z,72.67
2019-02-19T03:35:05.131Z,72.91
2019-02-19T03:36:05.114Z,72.99
2019-02-19T03:37:05.086Z,72.91
2019-02-19T03:38:05.059Z,72.91
2019-02-19T03:39:05.054Z,73.02
2019-02-19T03:40:05.098Z,73.29
2019-02-19T03:41:05.044Z,73.43
2019-02-19T03:42:05.025Z,73.22
2019-02-19T03:43:05.037Z,73.60
2019-02-19T03:44:05.007Z,73.71
2019-02-19T03:45:04.985Z,73.60
2019-02-19T03:46:11.817Z,73.39
2019-02-19T03:47:05.981Z,73.60
2019-02-19T03:48:04.958Z,73.60
2019-02-19T03:49:04.963Z,73.29
2019-02-19T03:50:04.930Z,73.39
2019-02-19T03:51:04.973Z,73.19
2019-02-19T03:52:04.925Z,74.12
2019-02-19T03:53:04.950Z,74.43
2019-02-19T03:54:04.897Z,74.46
2019-02-19T03:55:04.884Z,74.43
2019-02-19T03:56:04.862Z,74.95
2019-02-19T03:57:04.879Z,74.63
2019-02-19T03:58:04.863Z,74.84
2019-02-19T03:59:04.873Z,75.46
2019-02-19T04:00:04.855Z,75.19
2019-02-19T04:01:04.851Z,75.67
2019-02-19T04:02:04.826Z,75.19
2019-02-19T04:03:04.806Z,74.74
2019-02-19T04:04:04.804Z,75.26
2019-02-19T04:05:04.781Z,75.26
2019-02-19T04:06:04.763Z,75.77
2019-02-19T04:07:04.778Z,75.77
2019-02-19T04:08:04.746Z,75.87
2019-02-19T04:09:04.737Z,76.18
2019-02-19T04:10:04.727Z,76.50
2019-02-19T04:11:04.705Z,76.29
2019-02-19T04:12:04.698Z,76.29
2019-02-19T04:13:04.724Z,76.29
2019-02-19T04:14:04.670Z,76.81
2019-02-19T04:15:04.677Z,76.90
2019-02-19T04:16:04.700Z,76.70
2019-02-19T04:17:04.659Z,77.42
2019-02-19T04:18:04.678Z,77.42
2019-02-19T04:19:04.628Z,77.84
2019-02-19T04:20:04.622Z,77.84
2019-02-19T04:21:04.604Z,78.31
2019-02-19T04:22:04.594Z,78.45
2019-02-19T04:23:04.596Z,78.25
2019-02-19T04:24:04.602Z,78.66
2019-02-19T04:25:04.556Z,78.56
2019-02-19T04:26:04.560Z,79.14
2019-02-19T04:27:04.553Z,78.77
2019-02-19T04:28:04.536Z,79.25
2019-02-19T04:29:04.532Z,79.76
2019-02-19T04:30:04.529Z,79.55
2019-02-19T04:31:04.500Z,79.66
2019-02-19T04:32:04.505Z,79.45
2019-02-19T04:33:04.490Z,80.28
2019-02-19T04:34:04.498Z,80.58
2019-02-19T04:35:04.471Z,80.79
2019-02-19T04:36:04.475Z,82.14
2019-02-19T04:37:04.503Z,82.24
2019-02-19T04:38:04.437Z,82.96
2019-02-19T04:39:04.398Z,83.27
2019-02-19T04:40:04.403Z,82.96
2019-02-19T04:41:04.430Z,83.89
2019-02-19T04:42:04.417Z,84.20
2019-02-19T04:43:04.367Z,85.75
2019-02-19T04:44:04.367Z,85.64
2019-02-19T04:45:04.334Z,86.16
2019-02-19T04:46:04.334Z,87.13
2019-02-19T04:47:04.354Z,88.26
2019-02-19T04:48:04.305Z,87.95
2019-02-19T04:49:04.318Z,88.78
2019-02-19T04:50:04.335Z,89.09
2019-02-19T04:51:04.275Z,89.40
2019-02-19T04:52:04.296Z,89.81
2019-02-19T04:53:04.275Z,89.61
2019-02-19T04:54:04.246Z,90.16
2019-02-19T04:55:04.261Z,90.53
2019-02-19T04:56:04.255Z,90.33
2019-02-19T04:57:04.230Z,91.20
2019-02-19T04:58:04.229Z,91.09
2019-02-19T04:59:04.195Z,92.29
2019-02-19T05:00:04.183Z,92.33
2019-02-19T05:01:04.189Z,91.82
2019-02-19T05:02:04.181Z,91.92
2019-02-19T05:03:04.142Z,91.82
2019-02-19T05:04:04.153Z,92.54
2019-02-19T05:05:04.167Z,92.13
2019-02-19T05:06:04.108Z,92.44
2019-02-19T05:07:04.111Z,92.13
2019-02-19T05:08:04.120Z,92.85
2019-02-19T05:09:04.082Z,92.64
2019-02-19T05:10:04.083Z,92.85
2019-02-19T05:11:04.072Z,92.85
2019-02-19T05:12:04.074Z,92.74
2019-02-19T05:13:04.073Z,93.37
2019-02-19T05:14:04.043Z,93.68
2019-02-19T05:15:04.044Z,93.57
2019-02-19T05:16:04.026Z,93.68
2019-02-19T05:17:04.006Z,94.09
2019-02-19T05:18:04.010Z,94.23
2019-02-19T05:19:03.978Z,94.23
2019-02-19T05:20:03.984Z,94.23
2019-02-19T05:21:03.972Z,94.19
2019-02-19T05:22:03.967Z,94.13
2019-02-19T05:23:03.971Z,94.09
2019-02-19T05:24:03.929Z,94.13
2019-02-19T05:25:03.954Z,94.03
2019-02-19T05:26:03.895Z,94.23
2019-02-19T05:27:03.920Z,94.23
2019-02-19T05:28:03.893Z,94.54
2019-02-19T05:29:03.935Z,94.34
2019-02-19T05:30:03.857Z,94.54
2019-02-19T05:31:03.861Z,94.34
2019-02-19T05:32:03.838Z,94.54
2019-02-19T05:33:03.839Z,94.54
2019-02-19T05:34:03.816Z,94.44
2019-02-19T05:35:03.819Z,94.54
2019-02-19T05:36:03.806Z,94.85
2019-02-19T05:37:03.784Z,94.75
2019-02-19T05:38:03.793Z,94.85
2019-02-19T05:39:03.794Z,95.48
2019-02-19T05:40:03.796Z,95.48
2019-02-19T05:41:03.743Z,95.06
2019-02-19T05:42:03.728Z,95.17
2019-02-19T05:43:03.730Z,95.37
2019-02-19T05:44:03.721Z,95.37
2019-02-19T05:45:03.773Z,95.17
2019-02-19T05:46:03.733Z,95.99
2019-02-19T05:47:03.680Z,95.99
2019-02-19T05:48:05.273Z,96.03
2019-02-19T05:49:03.682Z,95.94
2019-02-19T05:50:03.683Z,95.78
2019-02-19T05:51:03.631Z,95.89
2019-02-19T05:52:03.637Z,95.89
2019-02-19T05:53:03.606Z,95.78
2019-02-19T05:54:03.615Z,96.09
2019-02-19T05:55:03.606Z,95.99
2019-02-19T05:56:03.611Z,95.57
2019-02-19T05:57:03.685Z,95.68
2019-02-19T05:58:03.555Z,96.51
2019-02-19T05:59:03.604Z,96.61
2019-02-19T06:00:03.535Z,96.41
2019-02-19T06:01:03.528Z,95.21
2019-02-19T06:02:03.538Z,95.89
2019-02-19T06:03:03.529Z,95.99
2019-02-19T06:04:03.535Z,96.41
2019-02-19T06:05:03.487Z,95.57
2019-02-19T06:06:03.482Z,95.57
2019-02-19T06:07:03.462Z,95.68
2019-02-19T06:08:03.517Z,95.89
2019-02-19T06:09:03.440Z,95.48
2019-02-19T06:10:03.425Z,95.94
2019-02-19T06:11:03.439Z,95.83
2019-02-19T06:12:03.455Z,95.57
2019-02-19T06:13:03.416Z,95.99
2019-02-19T06:14:03.390Z,95.68
2019-02-19T06:15:03.380Z,95.68
2019-02-19T06:16:03.380Z,95.37
2019-02-19T06:17:03.357Z,95.37
2019-02-19T06:18:03.350Z,95.31
2019-02-19T06:19:03.347Z,95.06
2019-02-19T06:20:03.351Z,95.10
2019-02-19T06:21:03.319Z,94.75
2019-02-19T06:22:03.292Z,94.85
2019-02-19T06:23:03.306Z,94.90
2019-02-19T06:24:03.382Z,95.06
2019-02-19T06:25:03.296Z,95.00
2019-02-19T06:26:03.287Z,95.10
2019-02-19T06:27:03.289Z,94.69
2019-02-19T06:28:03.260Z,94.90
2019-02-19T06:29:03.249Z,94.69
2019-02-19T06:30:03.217Z,94.90
2019-02-19T06:31:03.276Z,94.90
2019-02-19T06:32:03.184Z,95.00
2019-02-19T06:33:03.184Z,94.90
2019-02-19T06:34:03.256Z,94.90
2019-02-19T06:35:03.154Z,94.79
2019-02-19T06:36:03.165Z,94.90
2019-02-19T06:37:03.153Z,95.00
2019-02-19T06:38:03.144Z,95.06
2019-02-19T06:39:03.532Z,95.62
2019-02-19T06:40:03.146Z,95.68
2019-02-19T06:41:03.119Z,95.99
2019-02-19T06:42:03.095Z,95.48
2019-02-19T06:43:03.083Z,95.17
2019-02-19T06:44:03.124Z,95.57
2019-02-19T06:45:03.066Z,95.68
2019-02-19T06:46:03.040Z,95.68
2019-02-19T06:47:06.824Z,95.57
2019-02-19T06:48:03.041Z,95.68
2019-02-19T06:49:03.009Z,95.06
2019-02-19T06:50:03.026Z,95.27
2019-02-19T06:51:03.043Z,95.37
2019-02-19T06:52:02.987Z,94.96
2019-02-19T06:53:02.974Z,95.37
2019-02-19T06:54:02.973Z,95.27
2019-02-19T06:55:02.976Z,95.27
2019-02-19T06:56:02.934Z,95.06
2019-02-19T06:57:02.937Z,95.17
2019-02-19T06:58:02.920Z,95.37
2019-02-19T06:59:02.944Z,95.17
2019-02-19T07:00:02.904Z,95.17
2019-02-19T07:01:03.255Z,95.06
2019-02-19T07:02:02.867Z,94.85
2019-02-19T07:03:02.871Z,94.75
2019-02-19T07:04:02.844Z,95.06
2019-02-19T07:05:02.842Z,95.06
2019-02-19T07:06:02.890Z,95.27
2019-02-19T07:07:02.866Z,95.06
2019-02-19T07:08:02.837Z,94.96
2019-02-19T07:09:02.903Z,95.17
2019-02-19T07:10:02.794Z,94.96
2019-02-19T07:11:02.786Z,95.17
2019-02-19T07:12:02.792Z,95.57
2019-02-19T07:13:02.795Z,95.48
2019-02-19T07:14:02.740Z,95.17
2019-02-19T07:15:02.733Z,95.27
2019-02-19T07:16:02.718Z,95.37
2019-02-19T07:17:02.786Z,95.27
2019-02-19T07:18:02.702Z,95.32
2019-02-19T07:19:02.685Z,95.22
2019-02-19T07:20:02.686Z,95.22
2019-02-19T07:21:02.682Z,95.27
2019-02-19T07:22:02.659Z,95.32
2019-02-19T07:23:02.692Z,95.22
2019-02-19T07:24:04.617Z,95.32
2019-02-19T07:25:02.625Z,95.37
2019-02-19T07:26:02.681Z,95.37
2019-02-19T07:27:02.626Z,95.43
2019-02-19T07:28:02.600Z,95.99
2019-02-19T07:29:02.620Z,95.22
2019-02-19T07:30:02.588Z,95.22
2019-02-19T07:31:02.570Z,95.12
2019-02-19T07:32:02.581Z,95.12
2019-02-19T07:33:02.539Z,95.32
2019-02-19T07:34:02.582Z,95.74
2019-02-19T07:35:02.532Z,95.12
2019-02-19T07:36:02.502Z,95.12
2019-02-19T07:37:02.514Z,95.02
2019-02-19T07:38:02.503Z,95.12
2019-02-19T07:39:02.466Z,94.81
2019-02-19T07:40:02.501Z,95.02
2019-02-19T07:41:02.472Z,94.71
2019-02-19T07:42:02.434Z,94.60
2019-02-19T07:43:02.431Z,94.71
2019-02-19T07:44:02.418Z,94.50
2019-02-19T07:45:02.449Z,94.71
2019-02-19T07:46:02.418Z,94.60
2019-02-19T07:47:02.426Z,94.56
2019-02-19T07:48:02.429Z,94.29
2019-02-19T07:49:02.363Z,94.25
2019-02-19T07:50:02.742Z,94.25
2019-02-19T07:51:02.344Z,93.84
2019-02-19T07:52:02.361Z,94.25
2019-02-19T07:53:02.379Z,93.94
2019-02-19T07:54:02.307Z,94.04
2019-02-19T07:55:02.417Z,94.09
2019-02-19T07:56:02.296Z,93.84
2019-02-19T07:57:02.312Z,94.15
2019-02-19T07:58:02.276Z,94.04
2019-02-19T07:59:02.313Z,94.04
2019-02-19T08:00:02.259Z,93.73
2019-02-19T08:01:02.238Z,93.63
2019-02-19T08:02:02.225Z,93.63
2019-02-19T08:03:02.218Z,92.70
2019-02-19T08:04:02.224Z,92.80
2019-02-19T08:05:02.269Z,92.19
2019-02-19T08:06:02.184Z,91.88
2019-02-19T08:07:02.176Z,92.08
2019-02-19T08:08:02.185Z,91.88
2019-02-19T08:09:02.213Z,92.25
2019-02-19T08:10:02.184Z,91.05
2019-02-19T08:11:02.199Z,91.22
2019-02-19T08:12:02.112Z,90.91
2019-02-19T08:13:02.149Z,90.91
2019-02-19T08:14:02.095Z,90.70
2019-02-19T08:15:02.115Z,90.80
2019-02-19T08:16:02.110Z,90.59
2019-02-19T08:17:02.120Z,90.08
2019-02-19T08:18:02.058Z,90.70
2019-02-19T08:19:02.111Z,90.70
2019-02-19T08:20:02.033Z,90.70
2019-02-19T08:21:02.042Z,90.59
2019-02-19T08:22:02.012Z,90.80
2019-02-19T08:23:02.009Z,90.08
2019-02-19T08:24:01.996Z,90.28
2019-02-19T08:25:01.977Z,90.28
2019-02-19T08:26:01.987Z,89.98
2019-02-19T08:27:01.973Z,90.39
2019-02-19T08:28:02.005Z,89.36
2019-02-19T08:29:13.060Z,89.67
2019-02-19T08:30:02.943Z,89.36
2019-02-19T08:31:01.919Z,89.67
2019-02-19T08:32:01.929Z,89.46
2019-02-19T08:33:01.915Z,90.59
2019-02-19T08:34:01.872Z,89.67
2019-02-19T08:35:01.870Z,89.36
2019-02-19T08:36:01.881Z,89.77
2019-02-19T08:37:01.861Z,90.08
2019-02-19T08:38:01.878Z,89.46
2019-02-19T08:39:01.833Z,89.62
2019-02-19T08:40:01.808Z,89.01
2019-02-19T08:41:01.821Z,89.56
2019-02-19T08:42:01.800Z,89.56
2019-02-19T08:43:01.784Z,89.46
2019-02-19T08:44:01.796Z,89.77
2019-02-19T08:45:01.754Z,89.67
2019-02-19T08:46:01.768Z,89.11
2019-02-19T08:47:01.738Z,89.15
2019-02-19T08:48:01.740Z,89.22
2019-02-19T08:49:01.718Z,89.11
2019-02-19T08:50:01.743Z,88.90
2019-02-19T08:51:01.763Z,89.22
2019-02-19T08:52:01.703Z,89.22
2019-02-19T08:53:01.678Z,89.42
2019-02-19T08:54:01.662Z,89.32
2019-02-19T08:55:02.647Z,89.32
2019-02-19T08:56:01.692Z,89.32
2019-02-19T08:57:01.679Z,89.11
2019-02-19T08:58:01.630Z,88.59
2019-02-19T08:59:01.619Z,88.49
2019-02-19T09:00:01.610Z,88.90
2019-02-19T09:01:01.616Z,88.39
2019-02-19T09:02:01.698Z,88.18
2019-02-19T09:03:01.627Z,88.18
2019-02-19T09:04:01.553Z,87.87
2019-02-19T09:05:01.566Z,87.87
2019-02-19T09:06:01.541Z,87.66
2019-02-19T09:07:01.539Z,87.35
2019-02-19T09:08:01.560Z,87.66
2019-02-19T09:09:01.499Z,87.05
2019-02-19T09:10:01.489Z,86.94
2019-02-19T09:11:01.530Z,87.05
2019-02-19T09:12:01.511Z,87.05
2019-02-19T09:13:02.169Z,86.63
2019-02-19T09:14:01.976Z,86.02
2019-02-19T09:15:01.726Z,85.71
2019-02-19T09:16:01.434Z,86.74
2019-02-19T09:17:01.431Z,85.39
2019-02-19T09:18:01.442Z,86.32
2019-02-19T09:19:01.403Z,85.81
2019-02-19T09:20:01.448Z,85.30
2019-02-19T09:21:01.373Z,86.18
2019-02-19T09:22:01.393Z,85.97
2019-02-19T09:23:01.349Z,85.36
2019-02-19T09:24:09.287Z,85.36
2019-02-19T09:25:02.366Z,84.74
2019-02-19T09:26:01.328Z,85.67
2019-02-19T09:27:01.310Z,84.22
2019-02-19T09:28:01.355Z,84.12
2019-02-19T09:29:01.342Z,84.33
2019-02-19T09:30:01.345Z,84.12
2019-02-19T09:31:01.266Z,84.22
2019-02-19T09:32:01.250Z,83.81
2019-02-19T09:33:01.238Z,83.56
2019-02-19T09:34:01.333Z,84.33
2019-02-19T09:35:01.264Z,83.61
2019-02-19T09:36:01.383Z,82.95
2019-02-19T09:37:01.198Z,83.05
2019-02-19T09:38:01.189Z,83.05
2019-02-19T09:39:01.208Z,82.33
2019-02-19T09:40:01.167Z,83.05
2019-02-19T09:41:01.197Z,82.43
2019-02-19T09:42:01.144Z,82.43
2019-02-19T09:43:01.141Z,83.87
2019-02-19T09:44:01.118Z,82.23
2019-02-19T09:45:01.126Z,82.29
2019-02-19T09:46:01.105Z,82.23
2019-02-19T09:47:01.152Z,82.29
2019-02-19T09:48:01.709Z,82.29
2019-02-19T09:49:01.095Z,82.09
2019-02-19T09:50:01.100Z,81.92
2019-02-19T09:51:01.041Z,82.60
2019-02-19T09:52:01.077Z,81.77
2019-02-19T09:53:01.048Z,81.88
2019-02-19T09:54:01.024Z,81.98
2019-02-19T09:55:01.014Z,81.26
2019-02-19T09:56:00.991Z,81.77
2019-02-19T09:57:00.975Z,81.74
2019-02-19T09:58:01.011Z,81.47
2019-02-19T09:59:00.975Z,80.75
2019-02-19T10:00:00.968Z,80.75
2019-02-19T10:01:00.989Z,80.75
2019-02-19T10:02:00.952Z,81.16
2019-02-19T10:03:00.954Z,81.16
2019-02-19T10:04:00.963Z,81.26
2019-02-19T10:05:00.897Z,80.65
2019-02-19T10:06:00.886Z,80.54
2019-02-19T10:07:00.930Z,80.33
2019-02-19T10:08:00.861Z,80.54
2019-02-19T10:09:00.879Z,80.33
2019-02-19T10:10:00.865Z,80.65
2019-02-19T10:11:00.861Z,81.57
2019-02-19T10:12:00.833Z,80.95
2019-02-19T10:13:00.830Z,81.47
2019-02-19T10:14:00.793Z,80.65
2019-02-19T10:15:00.814Z,80.65
2019-02-19T10:16:00.792Z,80.95
2019-02-19T10:17:00.801Z,81.26
2019-02-19T10:18:00.761Z,81.26
2019-02-19T10:19:00.774Z,81.16
2019-02-19T10:20:00.736Z,81.05
2019-02-19T10:21:00.780Z,81.26
2019-02-19T10:22:00.726Z,81.47
2019-02-19T10:23:00.703Z,81.77
2019-02-19T10:24:00.709Z,81.88
2019-02-19T10:25:00.674Z,80.81
2019-02-19T10:26:00.708Z,80.91
2019-02-19T10:27:00.677Z,80.71
2019-02-19T10:28:00.653Z,80.81
2019-02-19T10:29:00.631Z,80.91
2019-02-19T10:30:00.692Z,80.30
2019-02-19T10:31:00.625Z,80.71
2019-02-19T10:32:00.692Z,80.30
2019-02-19T10:33:00.589Z,80.30
2019-02-19T10:34:00.592Z,79.75
2019-02-19T10:35:00.569Z,79.88
2019-02-19T10:36:00.625Z,79.44
2019-02-19T10:37:00.580Z,79.33
2019-02-19T10:38:00.543Z,79.64
2019-02-19T10:39:00.602Z,79.54
2019-02-19T10:40:00.684Z,79.13
2019-02-19T10:41:00.512Z,78.92
2019-02-19T10:42:00.542Z,78.72
2019-02-19T10:43:00.502Z,78.92
2019-02-19T10:44:00.513Z,79.44
2019-02-19T10:45:00.455Z,79.23
2019-02-19T10:46:00.481Z,79.13
2019-02-19T10:47:00.439Z,78.92
2019-02-19T10:48:00.429Z,78.30
2019-02-19T10:49:00.432Z,79.13
2019-02-19T10:50:00.403Z,78.82
2019-02-19T10:51:00.421Z,78.82
2019-02-19T10:52:00.394Z,79.13
2019-02-19T10:53:00.386Z,79.13
2019-02-19T10:54:00.407Z,79.58
2019-02-19T10:55:00.378Z,79.16
2019-02-19T10:56:00.336Z,79.58
2019-02-19T10:57:00.330Z,79.37
2019-02-19T10:58:00.322Z,79.47
2019-02-19T10:59:00.343Z,79.27
2019-02-19T11:00:00.369Z,79.27
2019-02-19T11:01:00.286Z,79.44
2019-02-19T11:02:00.443Z,78.92
2019-02-19T11:03:00.266Z,79.23
2019-02-19T11:04:00.258Z,79.33
2019-02-19T11:05:00.310Z,79.06
2019-02-19T11:06:00.230Z,78.82
2019-02-19T11:07:00.221Z,78.82
2019-02-19T11:08:00.250Z,78.51
2019-02-19T11:09:00.218Z,78.51
2019-02-19T11:10:00.318Z,78.30
2019-02-19T11:11:00.176Z,78.00
2019-02-19T11:12:00.164Z,78.10
2019-02-19T11:13:00.142Z,78.47
2019-02-19T11:14:00.156Z,77.24
2019-02-19T11:15:00.215Z,76.69
2019-02-19T11:16:00.150Z,77.00
2019-02-19T11:17:00.188Z,76.90
2019-02-19T11:18:00.114Z,77.20
2019-02-19T11:19:00.101Z,75.87
2019-02-19T11:20:00.186Z,75.67
2019-02-19T11:21:00.058Z,76.48
2019-02-19T11:22:00.048Z,76.38
2019-02-19T11:23:00.051Z,75.56
2019-02-19T11:24:00.036Z,75.90
2019-02-19T11:25:00.650Z,75.70
2019-02-19T11:25:59.996Z,76.01
2019-02-19T11:27:00.108Z,75.90
2019-02-19T11:28:00.008Z,76.59
2019-02-19T11:28:59.987Z,76.59
2019-02-19T11:30:00.014Z,76.28
2019-02-19T11:30:59.948Z,75.46
2019-02-19T11:31:59.941Z,76.28
2019-02-19T11:32:59.943Z,76.28
2019-02-19T11:33:59.924Z,75.67
2019-02-19T11:34:59.947Z,75.25
2019-02-19T11:35:59.909Z,75.87
2019-02-19T11:36:59.899Z,75.97
2019-02-19T11:37:59.876Z,75.56
2019-02-19T11:38:59.860Z,75.04
2019-02-19T11:39:59.879Z,75.35
2019-02-19T11:40:59.870Z,75.76
2019-02-19T11:41:59.837Z,75.15
2019-02-19T11:42:59.833Z,75.15
2019-02-19T11:43:59.815Z,74.95
2019-02-19T11:44:59.833Z,75.56
2019-02-19T11:45:59.810Z,75.67
2019-02-19T11:46:59.807Z,75.56
2019-02-19T11:47:59.780Z,74.95
2019-02-19T11:48:59.870Z,74.95
2019-02-19T11:49:59.899Z,75.15
2019-02-19T11:50:59.731Z,75.25
2019-02-19T11:51:59.755Z,76.69
2019-02-19T11:52:59.711Z,76.79
2019-02-19T11:53:59.694Z,78.03
2019-02-19T11:54:59.698Z,78.03
2019-02-19T11:55:59.704Z,76.73
2019-02-19T11:56:59.665Z,78.54
2019-02-19T11:57:59.672Z,78.27
2019-02-19T11:58:59.648Z,77.24
2019-02-19T11:59:59.634Z,76.73
2019-02-19T12:00:59.753Z,77.24
2019-02-19T12:01:59.602Z,77.03
2019-02-19T12:02:59.625Z,78.17
2019-02-19T12:03:59.600Z,78.17
2019-02-19T12:04:59.581Z,78.89
2019-02-19T12:05:59.564Z,79.23
2019-02-19T12:06:59.559Z,79.44
2019-02-19T12:07:59.566Z,79.81
2019-02-19T12:08:59.552Z,79.33
2019-02-19T12:09:59.554Z,79.33
2019-02-19T12:10:59.504Z,79.44
2019-02-19T12:11:59.493Z,78.82
2019-02-19T12:12:59.501Z,78.61
2019-02-19T12:13:59.498Z,78.82
2019-02-19T12:14:59.502Z,78.82
2019-02-19T12:15:59.509Z,78.47
2019-02-19T12:16:59.440Z,78.41
2019-02-19T12:17:59.430Z,78.37
2019-02-19T12:18:59.440Z,78.37
2019-02-19T12:19:59.424Z,78.41
2019-02-19T12:20:59.421Z,78.37
2019-02-19T12:21:59.391Z,78.58
2019-02-19T12:22:59.422Z,78.47
2019-02-19T12:23:59.362Z,78.37
2019-02-19T12:24:59.393Z,78.47
2019-02-19T12:25:59.359Z,78.27
2019-02-19T12:26:59.351Z,78.68
2019-02-19T12:27:59.331Z,78.78
2019-02-19T12:28:59.340Z,78.89
2019-02-19T12:29:59.373Z,78.82
2019-02-19T12:30:59.281Z,78.58
2019-02-19T12:31:59.291Z,78.68
2019-02-19T12:32:59.538Z,78.41
2019-02-19T12:33:59.812Z,78.27
2019-02-19T12:34:59.259Z,78.27
2019-02-19T12:35:59.225Z,78.47
2019-02-19T12:36:59.225Z,78.06
2019-02-19T12:37:59.210Z,78.17
2019-02-19T12:38:59.210Z,78.06
2019-02-19T12:39:59.718Z,78.17
2019-02-19T12:40:59.211Z,78.17
2019-02-19T12:41:59.168Z,78.17
2019-02-19T12:42:59.178Z,78.20
2019-02-19T12:43:59.265Z,78.58
2019-02-19T12:44:59.173Z,78.47
2019-02-19T12:45:59.169Z,78.58
2019-02-19T12:46:59.162Z,78.51
2019-02-19T12:47:59.093Z,78.37
2019-02-19T12:48:59.265Z,78.37
2019-02-19T12:49:59.225Z,78.37
2019-02-19T12:50:59.086Z,78.27
2019-02-19T12:51:59.065Z,78.33